PWSweather.com
Personal Weather Stations
Station Observations
HELOTES
Helotes Park Terrace, Helotes, TX 78023

Helotes Park TerraceHelotes, TX 78023

Lat: 29.57, Lon: -98.68

Elevation: 1060

Station Type: Ambient Weather WS-1090

Latest ConditionsUpdated 12:36:02 PM CST Sunday, Dec 21, 2014
Currently Today's Max Today's Min Today's Average
Temperature 54.4°F12.4°C 54.4°F12.4°C 49.5°F9.7°C 50.8°F10.4°C
Dew Point 50.0°F10.0°C 50.0°F10.0°C 44.5°F6.9°C 46.7°F8.2°C
Winds 5.7 mph SSW9.2 kmh SSW 5.7 mph SSW9.2 kmh SSW - 2.4 mph 3.9 kmh
Wind Gusts 7.8 mph12.6 kmh 8.9 mph14.3 kmh - -
Humidity 85% 88% 83% 86%
Pressure 29.93 in1013.5 mb 30.07 in1018.3 mb 29.93 in1013.5 mb -
Hour Temp Dew Point Humidity Winds Wind Gusts Pressure Precip Precip Rate Daily Precip Total
12:36 PM 54.4°F12.4°C 50.0°F10.0°C 85% 5.7 mph SSW9.2 kmh SSW 7.8 mph12.6 kmh 29.93 in1013.5 mb 0.00 in0.0 mm 0.00 in/hr0.0 mm/hr 0.00 in0.0 mm
12:30 PM 54.2°F12.3°C 49.8°F9.9°C 85% 3.0 mph S4.8 kmh S 6.3 mph10.1 kmh 29.93 in1013.5 mb 0.00 in0.0 mm 0.00 in/hr0.0 mm/hr 0.00 in0.0 mm
12:26 PM 54.0°F12.2°C 49.6°F9.8°C 85% 5.6 mph SE9.0 kmh SE 7.8 mph12.6 kmh 29.93 in1013.5 mb 0.00 in0.0 mm 0.00 in/hr0.0 mm/hr 0.00 in0.0 mm
12:20 PM 54.0°F12.2°C 49.6°F9.8°C 85% 3.7 mph S6.0 kmh S 7.8 mph12.6 kmh 29.93 in1013.5 mb 0.00 in0.0 mm 0.00 in/hr0.0 mm/hr 0.00 in0.0 mm
12:15 PM 53.8°F12.1°C 49.7°F9.8°C 86% 3.6 mph SE5.8 kmh SE 7.8 mph12.6 kmh 29.94 in1013.9 mb 0.00 in0.0 mm 0.00 in/hr0.0 mm/hr 0.00 in0.0 mm
12:10 PM 53.6°F12.0°C 49.5°F9.7°C 86% 4.9 mph S7.9 kmh S 8.9 mph14.3 kmh 29.95 in1014.2 mb 0.00 in0.0 mm 0.00 in/hr0.0 mm/hr 0.00 in0.0 mm
12:06 PM 53.6°F12.0°C 49.5°F9.7°C 86% 4.8 mph SSW7.7 kmh SSW 8.9 mph14.3 kmh 29.95 in1014.2 mb 0.00 in0.0 mm 0.00 in/hr0.0 mm/hr 0.00 in0.0 mm
12:00 PM 53.5°F11.9°C 49.3°F9.6°C 86% 5.1 mph S8.2 kmh S 6.9 mph11.1 kmh 29.95 in1014.2 mb 0.00 in0.0 mm 0.00 in/hr0.0 mm/hr 0.00 in0.0 mm
11:55 AM 53.3°F11.8°C 49.1°F9.5°C 86% 3.6 mph S5.8 kmh S 6.9 mph11.1 kmh 29.96 in1014.6 mb 0.00 in0.0 mm 0.00 in/hr0.0 mm/hr 0.00 in0.0 mm
11:50 AM 53.1°F11.7°C 49.0°F9.4°C 86% 5.4 mph SSW8.7 kmh SSW 6.7 mph10.8 kmh 29.97 in1014.9 mb 0.00 in0.0 mm 0.00 in/hr0.0 mm/hr 0.00 in0.0 mm
11:45 AM 52.9°F11.6°C 48.8°F9.3°C 86% 3.5 mph S5.6 kmh S 6.0 mph9.7 kmh 29.97 in1014.9 mb 0.00 in0.0 mm 0.00 in/hr0.0 mm/hr 0.00 in0.0 mm
11:40 AM 52.9°F11.6°C 48.8°F9.3°C 86% 3.9 mph SW6.3 kmh SW 6.9 mph11.1 kmh 29.97 in1014.9 mb 0.00 in0.0 mm 0.00 in/hr0.0 mm/hr 0.00 in0.0 mm
11:35 AM 52.9°F11.6°C 49.2°F9.6°C 87% 5.1 mph SSW8.2 kmh SSW 6.9 mph11.1 kmh 29.98 in1015.2 mb 0.00 in0.0 mm 0.00 in/hr0.0 mm/hr 0.00 in0.0 mm
11:30 AM 52.7°F11.5°C 49.0°F9.4°C 87% 3.6 mph SSW5.8 kmh SSW 5.4 mph8.7 kmh 29.98 in1015.2 mb 0.00 in0.0 mm 0.00 in/hr0.0 mm/hr 0.00 in0.0 mm
11:25 AM 52.6°F11.4°C 48.8°F9.3°C 87% 5.4 mph SSW8.7 kmh SSW 6.3 mph10.1 kmh 29.98 in1015.2 mb 0.00 in0.0 mm 0.00 in/hr0.0 mm/hr 0.00 in0.0 mm
11:20 AM 52.4°F11.3°C 48.6°F9.2°C 87% 3.9 mph S6.3 kmh S 8.7 mph14.0 kmh 29.98 in1015.2 mb 0.00 in0.0 mm 0.00 in/hr0.0 mm/hr 0.00 in0.0 mm
11:15 AM 52.2°F11.2°C 48.4°F9.1°C 87% 4.8 mph SW7.7 kmh SW 8.7 mph14.0 kmh 29.99 in1015.6 mb 0.00 in0.0 mm 0.00 in/hr0.0 mm/hr 0.00 in0.0 mm
11:10 AM 52.2°F11.2°C 48.4°F9.1°C 87% 3.7 mph SSW6.0 kmh SSW 8.9 mph14.3 kmh 29.99 in1015.6 mb 0.00 in0.0 mm 0.00 in/hr0.0 mm/hr 0.00 in0.0 mm
11:05 AM 52.0°F11.1°C 48.3°F9.1°C 87% 5.5 mph S8.9 kmh S 8.9 mph14.3 kmh 29.99 in1015.6 mb 0.00 in0.0 mm 0.00 in/hr0.0 mm/hr 0.00 in0.0 mm
11:00 AM 52.0°F11.1°C 48.3°F9.1°C 87% 4.2 mph S6.8 kmh S 7.8 mph12.6 kmh 29.99 in1015.6 mb 0.00 in0.0 mm 0.00 in/hr0.0 mm/hr 0.00 in0.0 mm
10:55 AM 51.8°F11.0°C 48.1°F8.9°C 87% 4.3 mph SSE6.9 kmh SSE 7.6 mph12.2 kmh 29.99 in1015.6 mb 0.00 in0.0 mm 0.00 in/hr0.0 mm/hr 0.00 in0.0 mm
10:50 AM 51.8°F11.0°C 48.1°F8.9°C 87% 3.7 mph S6.0 kmh S 6.3 mph10.1 kmh 29.99 in1015.6 mb 0.00 in0.0 mm 0.00 in/hr0.0 mm/hr 0.00 in0.0 mm
10:45 AM 51.8°F11.0°C 48.1°F8.9°C 87% 5.1 mph SSE8.2 kmh SSE 6.7 mph10.8 kmh 29.99 in1015.6 mb 0.00 in0.0 mm 0.00 in/hr0.0 mm/hr 0.00 in0.0 mm
10:40 AM 51.7°F10.9°C 48.2°F9.0°C 88% 4.3 mph SW6.9 kmh SW 6.7 mph10.8 kmh 29.99 in1015.6 mb 0.00 in0.0 mm 0.00 in/hr0.0 mm/hr 0.00 in0.0 mm
10:35 AM 51.7°F10.9°C 48.2°F9.0°C 88% 3.3 mph SSW5.3 kmh SSW 6.3 mph10.1 kmh 29.99 in1015.6 mb 0.00 in0.0 mm 0.00 in/hr0.0 mm/hr 0.00 in0.0 mm
10:30 AM 51.7°F10.9°C 48.2°F9.0°C 88% 4.7 mph SSW7.6 kmh SSW 5.4 mph8.7 kmh 29.99 in1015.6 mb 0.00 in0.0 mm 0.00 in/hr0.0 mm/hr 0.00 in0.0 mm
10:25 AM 51.5°F10.8°C 48.0°F8.9°C 88% 3.5 mph S5.6 kmh S 5.1 mph8.2 kmh 29.99 in1015.6 mb 0.00 in0.0 mm 0.00 in/hr0.0 mm/hr 0.00 in0.0 mm
10:20 AM 51.5°F10.8°C 48.0°F8.9°C 88% 4.5 mph S7.2 kmh S 5.6 mph9.0 kmh 29.99 in1015.6 mb 0.00 in0.0 mm 0.00 in/hr0.0 mm/hr 0.00 in0.0 mm
10:15 AM 51.5°F10.8°C 48.0°F8.9°C 88% 4.2 mph S6.8 kmh S 6.0 mph9.7 kmh 29.99 in1015.6 mb 0.00 in0.0 mm 0.00 in/hr0.0 mm/hr 0.00 in0.0 mm
10:10 AM 51.3°F10.7°C 47.8°F8.8°C 88% 4.3 mph S6.9 kmh S 6.7 mph10.8 kmh 29.99 in1015.6 mb 0.00 in0.0 mm 0.00 in/hr0.0 mm/hr 0.00 in0.0 mm
10:05 AM 51.1°F10.6°C 47.6°F8.7°C 88% 3.0 mph SW4.8 kmh SW 6.7 mph10.8 kmh 30.00 in1015.9 mb 0.00 in0.0 mm 0.00 in/hr0.0 mm/hr 0.00 in0.0 mm
10:00 AM 51.1°F10.6°C 47.6°F8.7°C 88% 4.4 mph SSW7.1 kmh SSW 6.7 mph10.8 kmh 30.00 in1015.9 mb 0.00 in0.0 mm 0.00 in/hr0.0 mm/hr 0.00 in0.0 mm
09:55 AM 50.9°F10.5°C 47.4°F8.6°C 88% 3.1 mph SSE5.0 kmh SSE 6.0 mph9.7 kmh 29.99 in1015.6 mb 0.00 in0.0 mm 0.00 in/hr0.0 mm/hr 0.00 in0.0 mm
09:50 AM 50.8°F10.4°C 47.3°F8.5°C 88% 3.3 mph SE5.3 kmh SE 7.6 mph12.2 kmh 29.99 in1015.6 mb 0.00 in0.0 mm 0.00 in/hr0.0 mm/hr 0.00 in0.0 mm
09:45 AM 50.8°F10.4°C 47.3°F8.5°C 88% 3.3 mph S5.3 kmh S 7.6 mph12.2 kmh 29.99 in1015.6 mb 0.00 in0.0 mm 0.00 in/hr0.0 mm/hr 0.00 in0.0 mm
09:40 AM 50.8°F10.4°C 47.3°F8.5°C 88% 3.1 mph SE5.0 kmh SE 6.9 mph11.1 kmh 29.99 in1015.6 mb 0.00 in0.0 mm 0.00 in/hr0.0 mm/hr 0.00 in0.0 mm
09:35 AM 50.8°F10.4°C 47.3°F8.5°C 88% 3.9 mph S6.3 kmh S 6.9 mph11.1 kmh 30.00 in1015.9 mb 0.00 in0.0 mm 0.00 in/hr0.0 mm/hr 0.00 in0.0 mm
09:30 AM 50.8°F10.4°C 47.0°F8.3°C 87% 3.2 mph SW5.1 kmh SW 6.9 mph11.1 kmh 30.00 in1015.9 mb 0.00 in0.0 mm 0.00 in/hr0.0 mm/hr 0.00 in0.0 mm
09:25 AM 50.8°F10.4°C 47.0°F8.3°C 87% 3.7 mph S6.0 kmh S 5.8 mph9.3 kmh 30.01 in1016.3 mb 0.00 in0.0 mm 0.00 in/hr0.0 mm/hr 0.00 in0.0 mm
09:20 AM 50.8°F10.4°C 47.0°F8.3°C 87% 3.3 mph S5.3 kmh S 5.6 mph9.0 kmh 30.00 in1015.9 mb 0.00 in0.0 mm 0.00 in/hr0.0 mm/hr 0.00 in0.0 mm
09:15 AM 50.6°F10.3°C 46.8°F8.2°C 87% 3.2 mph S5.1 kmh S 5.6 mph9.0 kmh 30.00 in1015.9 mb 0.00 in0.0 mm 0.00 in/hr0.0 mm/hr 0.00 in0.0 mm
09:10 AM 50.6°F10.3°C 46.8°F8.2°C 87% 3.8 mph S6.1 kmh S 5.4 mph8.7 kmh 30.01 in1016.3 mb 0.00 in0.0 mm 0.00 in/hr0.0 mm/hr 0.00 in0.0 mm
09:05 AM 50.6°F10.3°C 46.8°F8.2°C 87% 4.1 mph S6.6 kmh S 5.4 mph8.7 kmh 30.01 in1016.3 mb 0.00 in0.0 mm 0.00 in/hr0.0 mm/hr 0.00 in0.0 mm
09:00 AM 50.4°F10.2°C 46.6°F8.1°C 87% 3.5 mph SE5.6 kmh SE 5.4 mph8.7 kmh 30.01 in1016.3 mb 0.00 in0.0 mm 0.00 in/hr0.0 mm/hr 0.00 in0.0 mm
08:55 AM 50.6°F10.3°C 46.8°F8.2°C 87% 1.5 mph S2.4 kmh S 4.0 mph6.4 kmh 30.00 in1015.9 mb 0.00 in0.0 mm 0.00 in/hr0.0 mm/hr 0.00 in0.0 mm
08:50 AM 50.4°F10.2°C 46.6°F8.1°C 87% 2.5 mph SW4.0 kmh SW 6.3 mph10.1 kmh 30.01 in1016.3 mb 0.00 in0.0 mm 0.00 in/hr0.0 mm/hr 0.00 in0.0 mm
08:45 AM 50.4°F10.2°C 46.6°F8.1°C 87% 3.7 mph S6.0 kmh S 6.3 mph10.1 kmh 30.01 in1016.3 mb 0.00 in0.0 mm 0.00 in/hr0.0 mm/hr 0.00 in0.0 mm
08:40 AM 50.4°F10.2°C 46.6°F8.1°C 87% 1.8 mph SE2.9 kmh SE 3.6 mph5.8 kmh 30.00 in1015.9 mb 0.00 in0.0 mm 0.00 in/hr0.0 mm/hr 0.00 in0.0 mm
08:35 AM 50.4°F10.2°C 46.6°F8.1°C 87% 2.4 mph SE3.9 kmh SE 3.6 mph5.8 kmh 30.00 in1015.9 mb 0.00 in0.0 mm 0.00 in/hr0.0 mm/hr 0.00 in0.0 mm
08:30 AM 50.4°F10.2°C 46.6°F8.1°C 87% 1.5 mph SE2.4 kmh SE 4.7 mph7.6 kmh 30.00 in1015.9 mb 0.00 in0.0 mm 0.00 in/hr0.0 mm/hr 0.00 in0.0 mm
08:25 AM 50.4°F10.2°C 46.6°F8.1°C 87% 1.2 mph SE1.9 kmh SE 4.7 mph7.6 kmh 30.00 in1015.9 mb 0.00 in0.0 mm 0.00 in/hr0.0 mm/hr 0.00 in0.0 mm
08:20 AM 50.4°F10.2°C 46.3°F7.9°C 86% 2.8 mph S4.5 kmh S 3.6 mph5.8 kmh 30.00 in1015.9 mb 0.00 in0.0 mm 0.00 in/hr0.0 mm/hr 0.00 in0.0 mm
08:15 AM 50.4°F10.2°C 46.3°F7.9°C 86% 1.7 mph S2.7 kmh S 4.7 mph7.6 kmh 30.00 in1015.9 mb 0.00 in0.0 mm 0.00 in/hr0.0 mm/hr 0.00 in0.0 mm
08:10 AM 50.4°F10.2°C 46.3°F7.9°C 86% 2.4 mph S3.9 kmh S 4.7 mph7.6 kmh 30.00 in1015.9 mb 0.00 in0.0 mm 0.00 in/hr0.0 mm/hr 0.00 in0.0 mm
08:05 AM 50.4°F10.2°C 46.3°F7.9°C 86% 1.2 mph S1.9 kmh S 4.7 mph7.6 kmh 30.00 in1015.9 mb 0.00 in0.0 mm 0.00 in/hr0.0 mm/hr 0.00 in0.0 mm
08:00 AM 50.4°F10.2°C 46.3°F7.9°C 86% 2.0 mph S3.2 kmh S 4.7 mph7.6 kmh 29.99 in1015.6 mb 0.00 in0.0 mm 0.00 in/hr0.0 mm/hr 0.00 in0.0 mm
07:55 AM 50.4°F10.2°C 46.3°F7.9°C 86% 1.9 mph SE3.1 kmh SE 3.4 mph5.5 kmh 29.99 in1015.6 mb 0.00 in0.0 mm 0.00 in/hr0.0 mm/hr 0.00 in0.0 mm
07:50 AM 50.4°F10.2°C 46.3°F7.9°C 86% 1.3 mph SSE2.1 kmh SSE 3.6 mph5.8 kmh 29.99 in1015.6 mb 0.00 in0.0 mm 0.00 in/hr0.0 mm/hr 0.00 in0.0 mm
07:45 AM 50.4°F10.2°C 46.6°F8.1°C 87% 1.5 mph SSE2.4 kmh SSE 4.5 mph7.2 kmh 29.99 in1015.6 mb 0.00 in0.0 mm 0.00 in/hr0.0 mm/hr 0.00 in0.0 mm
07:40 AM 50.4°F10.2°C 46.3°F7.9°C 86% 2.9 mph SSE4.7 kmh SSE 4.9 mph7.9 kmh 29.99 in1015.6 mb 0.00 in0.0 mm 0.00 in/hr0.0 mm/hr 0.00 in0.0 mm
07:35 AM 50.4°F10.2°C 46.3°F7.9°C 86% 3.1 mph SSE5.0 kmh SSE 4.9 mph7.9 kmh 29.99 in1015.6 mb 0.00 in0.0 mm 0.00 in/hr0.0 mm/hr 0.00 in0.0 mm
07:30 AM 50.4°F10.2°C 46.3°F7.9°C 86% 1.7 mph SE2.7 kmh SE 4.7 mph7.6 kmh 29.99 in1015.6 mb 0.00 in0.0 mm 0.00 in/hr0.0 mm/hr 0.00 in0.0 mm
07:25 AM 50.4°F10.2°C 46.3°F7.9°C 86% 3.6 mph SSE5.8 kmh SSE 4.3 mph6.9 kmh 29.99 in1015.6 mb 0.00 in0.0 mm 0.00 in/hr0.0 mm/hr 0.00 in0.0 mm
07:20 AM 50.4°F10.2°C 46.3°F7.9°C 86% 3.0 mph S4.8 kmh S 3.8 mph6.1 kmh 29.99 in1015.6 mb 0.00 in0.0 mm 0.00 in/hr0.0 mm/hr 0.00 in0.0 mm
07:15 AM 50.4°F10.2°C 46.3°F7.9°C 86% 1.6 mph SE2.6 kmh SE 4.9 mph7.9 kmh 29.99 in1015.6 mb 0.00 in0.0 mm 0.00 in/hr0.0 mm/hr 0.00 in0.0 mm
07:10 AM 50.4°F10.2°C 46.3°F7.9°C 86% 2.5 mph SE4.0 kmh SE 4.9 mph7.9 kmh 29.99 in1015.6 mb 0.00 in0.0 mm 0.00 in/hr0.0 mm/hr 0.00 in0.0 mm
07:05 AM 50.4°F10.2°C 46.3°F7.9°C 86% 3.3 mph SE5.3 kmh SE 4.7 mph7.6 kmh 29.99 in1015.6 mb 0.00 in0.0 mm 0.00 in/hr0.0 mm/hr 0.00 in0.0 mm
07:00 AM 50.4°F10.2°C 46.3°F7.9°C 86% 1.4 mph ESE2.3 kmh ESE 3.6 mph5.8 kmh 29.99 in1015.6 mb 0.00 in0.0 mm 0.00 in/hr0.0 mm/hr 0.00 in0.0 mm
06:55 AM 50.4°F10.2°C 46.3°F7.9°C 86% 2.0 mph SE3.2 kmh SE 4.9 mph7.9 kmh 29.99 in1015.6 mb 0.00 in0.0 mm 0.00 in/hr0.0 mm/hr 0.00 in0.0 mm
06:50 AM 50.4°F10.2°C 46.3°F7.9°C 86% 2.2 mph SE3.5 kmh SE 4.9 mph7.9 kmh 29.99 in1015.6 mb 0.00 in0.0 mm 0.00 in/hr0.0 mm/hr 0.00 in0.0 mm
06:45 AM 50.4°F10.2°C 46.3°F7.9°C 86% 1.7 mph S2.7 kmh S 4.0 mph6.4 kmh 29.99 in1015.6 mb 0.00 in0.0 mm 0.00 in/hr0.0 mm/hr 0.00 in0.0 mm
06:40 AM 50.4°F10.2°C 46.3°F7.9°C 86% 2.0 mph SE3.2 kmh SE 2.9 mph4.7 kmh 29.99 in1015.6 mb 0.00 in0.0 mm 0.00 in/hr0.0 mm/hr 0.00 in0.0 mm
06:35 AM 50.4°F10.2°C 46.3°F7.9°C 86% 0.9 mph ESE1.4 kmh ESE 2.0 mph3.2 kmh 29.99 in1015.6 mb 0.00 in0.0 mm 0.00 in/hr0.0 mm/hr 0.00 in0.0 mm
06:30 AM 50.4°F10.2°C 46.3°F7.9°C 86% 0.9 mph ESE1.4 kmh ESE 3.1 mph5.0 kmh 29.99 in1015.6 mb 0.00 in0.0 mm 0.00 in/hr0.0 mm/hr 0.00 in0.0 mm
06:25 AM 50.4°F10.2°C 46.3°F7.9°C 86% 2.3 mph E3.7 kmh E 3.1 mph5.0 kmh 29.99 in1015.6 mb 0.00 in0.0 mm 0.00 in/hr0.0 mm/hr 0.00 in0.0 mm
06:20 AM 50.4°F10.2°C 46.3°F7.9°C 86% 0.8 mph E1.3 kmh E 2.5 mph4.0 kmh 29.99 in1015.6 mb 0.00 in0.0 mm 0.00 in/hr0.0 mm/hr 0.00 in0.0 mm
06:15 AM 50.4°F10.2°C 46.3°F7.9°C 86% 1.0 mph ESE1.6 kmh ESE 3.8 mph6.1 kmh 29.99 in1015.6 mb 0.00 in0.0 mm 0.00 in/hr0.0 mm/hr 0.00 in0.0 mm
06:10 AM 50.4°F10.2°C 46.3°F7.9°C 86% 1.4 mph SE2.3 kmh SE 3.8 mph6.1 kmh 29.99 in1015.6 mb 0.00 in0.0 mm 0.00 in/hr0.0 mm/hr 0.00 in0.0 mm
06:05 AM 50.4°F10.2°C 46.3°F7.9°C 86% 2.1 mph ESE3.4 kmh ESE 3.1 mph5.0 kmh 29.98 in1015.2 mb 0.00 in0.0 mm 0.00 in/hr0.0 mm/hr 0.00 in0.0 mm
06:00 AM 50.4°F10.2°C 46.3°F7.9°C 86% 1.2 mph SE1.9 kmh SE 2.0 mph3.2 kmh 29.98 in1015.2 mb 0.00 in0.0 mm 0.00 in/hr0.0 mm/hr 0.00 in0.0 mm
05:55 AM 50.4°F10.2°C 46.3°F7.9°C 86% 1.4 mph E2.3 kmh E 3.8 mph6.1 kmh 29.98 in1015.2 mb 0.00 in0.0 mm 0.00 in/hr0.0 mm/hr 0.00 in0.0 mm
05:50 AM 50.4°F10.2°C 46.3°F7.9°C 86% 1.5 mph E2.4 kmh E 3.8 mph6.1 kmh 29.98 in1015.2 mb 0.00 in0.0 mm 0.00 in/hr0.0 mm/hr 0.00 in0.0 mm
05:45 AM 50.4°F10.2°C 46.3°F7.9°C 86% 1.3 mph E2.1 kmh E 2.0 mph3.2 kmh 29.98 in1015.2 mb 0.00 in0.0 mm 0.00 in/hr0.0 mm/hr 0.00 in0.0 mm
05:40 AM 50.4°F10.2°C 46.3°F7.9°C 86% 1.0 mph E1.6 kmh E 2.0 mph3.2 kmh 29.98 in1015.2 mb 0.00 in0.0 mm 0.00 in/hr0.0 mm/hr 0.00 in0.0 mm
05:35 AM 50.4°F10.2°C 46.3°F7.9°C 86% 0.6 mph E1.0 kmh E 3.6 mph5.8 kmh 29.98 in1015.2 mb 0.00 in0.0 mm 0.00 in/hr0.0 mm/hr 0.00 in0.0 mm
05:30 AM 50.4°F10.2°C 46.3°F7.9°C 86% 2.2 mph E3.5 kmh E 3.6 mph5.8 kmh 29.98 in1015.2 mb 0.00 in0.0 mm 0.00 in/hr0.0 mm/hr 0.00 in0.0 mm
05:25 AM 50.4°F10.2°C 46.3°F7.9°C 86% 1.0 mph SE1.6 kmh SE 2.9 mph4.7 kmh 29.98 in1015.2 mb 0.00 in0.0 mm 0.00 in/hr0.0 mm/hr 0.00 in0.0 mm
05:20 AM 50.4°F10.2°C 46.3°F7.9°C 86% 1.6 mph ESE2.6 kmh ESE 4.5 mph7.2 kmh 29.98 in1015.2 mb 0.00 in0.0 mm 0.00 in/hr0.0 mm/hr 0.00 in0.0 mm
05:15 AM 50.4°F10.2°C 46.0°F7.8°C 85% 2.6 mph SE4.2 kmh SE 4.5 mph7.2 kmh 29.98 in1015.2 mb 0.00 in0.0 mm 0.00 in/hr0.0 mm/hr 0.00 in0.0 mm
05:10 AM 50.4°F10.2°C 46.0°F7.8°C 85% 2.1 mph E3.4 kmh E 3.1 mph5.0 kmh 29.98 in1015.2 mb 0.00 in0.0 mm 0.00 in/hr0.0 mm/hr 0.00 in0.0 mm
05:05 AM 50.4°F10.2°C 46.0°F7.8°C 85% 1.7 mph E2.7 kmh E 3.1 mph5.0 kmh 29.98 in1015.2 mb 0.00 in0.0 mm 0.00 in/hr0.0 mm/hr 0.00 in0.0 mm
05:00 AM 50.4°F10.2°C 46.0°F7.8°C 85% 1.0 mph ESE1.6 kmh ESE 2.5 mph4.0 kmh 29.98 in1015.2 mb 0.00 in0.0 mm 0.00 in/hr0.0 mm/hr 0.00 in0.0 mm
04:55 AM 50.4°F10.2°C 46.0°F7.8°C 85% 1.3 mph E2.1 kmh E 2.5 mph4.0 kmh 29.98 in1015.2 mb 0.00 in0.0 mm 0.00 in/hr0.0 mm/hr 0.00 in0.0 mm
04:50 AM 50.4°F10.2°C 46.0°F7.8°C 85% 1.1 mph E1.8 kmh E 2.2 mph3.5 kmh 29.98 in1015.2 mb 0.00 in0.0 mm 0.00 in/hr0.0 mm/hr 0.00 in0.0 mm
04:45 AM 50.4°F10.2°C 46.0°F7.8°C 85% 0.6 mph ESE1.0 kmh ESE 4.0 mph6.4 kmh 29.99 in1015.6 mb 0.00 in0.0 mm 0.00 in/hr0.0 mm/hr 0.00 in0.0 mm
04:40 AM 50.4°F10.2°C 46.0°F7.8°C 85% 1.9 mph E3.1 kmh E 4.0 mph6.4 kmh 29.99 in1015.6 mb 0.00 in0.0 mm 0.00 in/hr0.0 mm/hr 0.00 in0.0 mm
04:35 AM 50.4°F10.2°C 46.0°F7.8°C 85% 1.9 mph ENE3.1 kmh ENE 3.1 mph5.0 kmh 29.99 in1015.6 mb 0.00 in0.0 mm 0.00 in/hr0.0 mm/hr 0.00 in0.0 mm
04:30 AM 50.4°F10.2°C 46.0°F7.8°C 85% 1.1 mph ESE1.8 kmh ESE 2.5 mph4.0 kmh 29.99 in1015.6 mb 0.00 in0.0 mm 0.00 in/hr0.0 mm/hr 0.00 in0.0 mm
04:25 AM 50.4°F10.2°C 46.0°F7.8°C 85% 1.6 mph ESE2.6 kmh ESE 4.3 mph6.9 kmh 29.99 in1015.6 mb 0.00 in0.0 mm 0.00 in/hr0.0 mm/hr 0.00 in0.0 mm
04:20 AM 50.4°F10.2°C 46.0°F7.8°C 85% 2.1 mph ENE3.4 kmh ENE 4.3 mph6.9 kmh 29.99 in1015.6 mb 0.00 in0.0 mm 0.00 in/hr0.0 mm/hr 0.00 in0.0 mm
04:15 AM 50.4°F10.2°C 46.0°F7.8°C 85% 2.5 mph ESE4.0 kmh ESE 4.3 mph6.9 kmh 29.99 in1015.6 mb 0.00 in0.0 mm 0.00 in/hr0.0 mm/hr 0.00 in0.0 mm
04:10 AM 50.4°F10.2°C 46.0°F7.8°C 85% 0.8 mph ENE1.3 kmh ENE 3.8 mph6.1 kmh 29.99 in1015.6 mb 0.00 in0.0 mm 0.00 in/hr0.0 mm/hr 0.00 in0.0 mm
04:05 AM 50.4°F10.2°C 46.0°F7.8°C 85% 2.0 mph ESE3.2 kmh ESE 5.6 mph9.0 kmh 30.00 in1015.9 mb 0.00 in0.0 mm 0.00 in/hr0.0 mm/hr 0.00 in0.0 mm
04:00 AM 50.4°F10.2°C 46.0°F7.8°C 85% 4.7 mph SE7.6 kmh SE 5.6 mph9.0 kmh 30.00 in1015.9 mb 0.00 in0.0 mm 0.00 in/hr0.0 mm/hr 0.00 in0.0 mm
03:55 AM 50.4°F10.2°C 46.0°F7.8°C 85% 2.6 mph SE4.2 kmh SE 4.7 mph7.6 kmh 30.00 in1015.9 mb 0.00 in0.0 mm 0.00 in/hr0.0 mm/hr 0.00 in0.0 mm
03:50 AM 50.4°F10.2°C 46.0°F7.8°C 85% 1.7 mph ESE2.7 kmh ESE 5.4 mph8.7 kmh 30.00 in1015.9 mb 0.00 in0.0 mm 0.00 in/hr0.0 mm/hr 0.00 in0.0 mm
03:45 AM 50.4°F10.2°C 46.0°F7.8°C 85% 1.4 mph ESE2.3 kmh ESE 5.4 mph8.7 kmh 30.01 in1016.3 mb 0.00 in0.0 mm 0.00 in/hr0.0 mm/hr 0.00 in0.0 mm
03:40 AM 50.4°F10.2°C 46.0°F7.8°C 85% 1.5 mph E2.4 kmh E 4.0 mph6.4 kmh 30.01 in1016.3 mb 0.00 in0.0 mm 0.00 in/hr0.0 mm/hr 0.00 in0.0 mm
03:35 AM 50.4°F10.2°C 46.0°F7.8°C 85% 1.2 mph SE1.9 kmh SE 2.5 mph4.0 kmh 30.02 in1016.6 mb 0.00 in0.0 mm 0.00 in/hr0.0 mm/hr 0.00 in0.0 mm
03:30 AM 50.4°F10.2°C 46.0°F7.8°C 85% 2.0 mph ESE3.2 kmh ESE 2.5 mph4.0 kmh 30.02 in1016.6 mb 0.00 in0.0 mm 0.00 in/hr0.0 mm/hr 0.00 in0.0 mm
03:25 AM 50.4°F10.2°C 46.0°F7.8°C 85% 1.2 mph SSE1.9 kmh SSE 3.8 mph6.1 kmh 30.02 in1016.6 mb 0.00 in0.0 mm 0.00 in/hr0.0 mm/hr 0.00 in0.0 mm
03:20 AM 50.4°F10.2°C 46.0°F7.8°C 85% 0.7 mph S1.1 kmh S 3.8 mph6.1 kmh 30.02 in1016.6 mb 0.00 in0.0 mm 0.00 in/hr0.0 mm/hr 0.00 in0.0 mm
03:15 AM 50.4°F10.2°C 46.0°F7.8°C 85% 1.1 mph S1.8 kmh S 5.1 mph8.2 kmh 30.02 in1016.6 mb 0.00 in0.0 mm 0.00 in/hr0.0 mm/hr 0.00 in0.0 mm
03:10 AM 50.4°F10.2°C 46.0°F7.8°C 85% 2.8 mph SE4.5 kmh SE 5.1 mph8.2 kmh 30.02 in1016.6 mb 0.00 in0.0 mm 0.00 in/hr0.0 mm/hr 0.00 in0.0 mm
03:05 AM 50.4°F10.2°C 46.0°F7.8°C 85% 2.8 mph E4.5 kmh E 4.3 mph6.9 kmh 30.01 in1016.3 mb 0.00 in0.0 mm 0.00 in/hr0.0 mm/hr 0.00 in0.0 mm
03:00 AM 50.4°F10.2°C 46.0°F7.8°C 85% 1.3 mph E2.1 kmh E 3.8 mph6.1 kmh 30.01 in1016.3 mb 0.00 in0.0 mm 0.00 in/hr0.0 mm/hr 0.00 in0.0 mm
02:55 AM 50.6°F10.3°C 46.2°F7.9°C 85% 1.8 mph E2.9 kmh E 4.0 mph6.4 kmh 30.02 in1016.6 mb 0.00 in0.0 mm 0.00 in/hr0.0 mm/hr 0.00 in0.0 mm
02:50 AM 50.6°F10.3°C 46.2°F7.9°C 85% 1.6 mph E2.6 kmh E 4.0 mph6.4 kmh 30.02 in1016.6 mb 0.00 in0.0 mm 0.00 in/hr0.0 mm/hr 0.00 in0.0 mm
02:45 AM 50.6°F10.3°C 46.2°F7.9°C 85% 2.0 mph E3.2 kmh E 4.0 mph6.4 kmh 30.02 in1016.6 mb 0.00 in0.0 mm 0.00 in/hr0.0 mm/hr 0.00 in0.0 mm
02:40 AM 50.6°F10.3°C 46.2°F7.9°C 85% 1.1 mph E1.8 kmh E 3.8 mph6.1 kmh 30.02 in1016.6 mb 0.00 in0.0 mm 0.00 in/hr0.0 mm/hr 0.00 in0.0 mm
02:35 AM 50.6°F10.3°C 46.2°F7.9°C 85% 2.9 mph ESE4.7 kmh ESE 3.8 mph6.1 kmh 30.02 in1016.6 mb 0.00 in0.0 mm 0.00 in/hr0.0 mm/hr 0.00 in0.0 mm
02:30 AM 50.6°F10.3°C 46.2°F7.9°C 85% 1.9 mph E3.1 kmh E 3.4 mph5.5 kmh 30.02 in1016.6 mb 0.00 in0.0 mm 0.00 in/hr0.0 mm/hr 0.00 in0.0 mm
02:25 AM 50.6°F10.3°C 46.2°F7.9°C 85% 2.1 mph SSE3.4 kmh SSE 3.4 mph5.5 kmh 30.02 in1016.6 mb 0.00 in0.0 mm 0.00 in/hr0.0 mm/hr 0.00 in0.0 mm
02:20 AM 50.6°F10.3°C 46.2°F7.9°C 85% 2.1 mph E3.4 kmh E 3.4 mph5.5 kmh 30.03 in1016.9 mb 0.00 in0.0 mm 0.00 in/hr0.0 mm/hr 0.00 in0.0 mm
02:15 AM 50.6°F10.3°C 46.2°F7.9°C 85% 1.8 mph ESE2.9 kmh ESE 2.7 mph4.3 kmh 30.03 in1016.9 mb 0.00 in0.0 mm 0.00 in/hr0.0 mm/hr 0.00 in0.0 mm
02:10 AM 50.6°F10.3°C 46.2°F7.9°C 85% 1.6 mph ESE2.6 kmh ESE 2.7 mph4.3 kmh 30.03 in1016.9 mb 0.00 in0.0 mm 0.00 in/hr0.0 mm/hr 0.00 in0.0 mm
02:05 AM 50.6°F10.3°C 46.2°F7.9°C 85% 0.9 mph E1.4 kmh E 2.7 mph4.3 kmh 30.03 in1016.9 mb 0.00 in0.0 mm 0.00 in/hr0.0 mm/hr 0.00 in0.0 mm
02:00 AM 50.6°F10.3°C 45.9°F7.7°C 84% 1.2 mph SE1.9 kmh SE 2.7 mph4.3 kmh 30.03 in1016.9 mb 0.00 in0.0 mm 0.00 in/hr0.0 mm/hr 0.00 in0.0 mm
01:55 AM 50.6°F10.3°C 46.2°F7.9°C 85% 1.4 mph E2.3 kmh E 2.9 mph4.7 kmh 30.02 in1016.6 mb 0.00 in0.0 mm 0.00 in/hr0.0 mm/hr 0.00 in0.0 mm
01:50 AM 50.4°F10.2°C 45.7°F7.6°C 84% 1.2 mph E1.9 kmh E 3.1 mph5.0 kmh 30.02 in1016.6 mb 0.00 in0.0 mm 0.00 in/hr0.0 mm/hr 0.00 in0.0 mm
01:45 AM 50.4°F10.2°C 45.7°F7.6°C 84% 1.2 mph ENE1.9 kmh ENE 4.0 mph6.4 kmh 30.03 in1016.9 mb 0.00 in0.0 mm 0.00 in/hr0.0 mm/hr 0.00 in0.0 mm
01:40 AM 50.4°F10.2°C 45.7°F7.6°C 84% 2.0 mph NNE3.2 kmh NNE 4.0 mph6.4 kmh 30.03 in1016.9 mb 0.00 in0.0 mm 0.00 in/hr0.0 mm/hr 0.00 in0.0 mm
01:35 AM 50.4°F10.2°C 45.7°F7.6°C 84% 1.3 mph E2.1 kmh E 3.4 mph5.5 kmh 30.03 in1016.9 mb 0.00 in0.0 mm 0.00 in/hr0.0 mm/hr 0.00 in0.0 mm
01:30 AM 50.4°F10.2°C 45.7°F7.6°C 84% 2.0 mph NE3.2 kmh NE 3.4 mph5.5 kmh 30.03 in1016.9 mb 0.00 in0.0 mm 0.00 in/hr0.0 mm/hr 0.00 in0.0 mm
01:25 AM 50.4°F10.2°C 45.7°F7.6°C 84% 0.8 mph ENE1.3 kmh ENE 1.8 mph2.9 kmh 30.04 in1017.3 mb 0.00 in0.0 mm 0.00 in/hr0.0 mm/hr 0.00 in0.0 mm
01:20 AM 50.4°F10.2°C 45.7°F7.6°C 84% 0.3 mph E0.5 kmh E 2.5 mph4.0 kmh 30.04 in1017.3 mb 0.00 in0.0 mm 0.00 in/hr0.0 mm/hr 0.00 in0.0 mm
01:15 AM 50.4°F10.2°C 45.7°F7.6°C 84% 1.7 mph E2.7 kmh E 2.7 mph4.3 kmh 30.04 in1017.3 mb 0.00 in0.0 mm 0.00 in/hr0.0 mm/hr 0.00 in0.0 mm
01:10 AM 50.2°F10.1°C 45.6°F7.6°C 84% 0.8 mph ENE1.3 kmh ENE 2.7 mph4.3 kmh 30.04 in1017.3 mb 0.00 in0.0 mm 0.00 in/hr0.0 mm/hr 0.00 in0.0 mm
01:05 AM 50.2°F10.1°C 45.6°F7.6°C 84% 1.2 mph NE1.9 kmh NE 4.0 mph6.4 kmh 30.05 in1017.6 mb 0.00 in0.0 mm 0.00 in/hr0.0 mm/hr 0.00 in0.0 mm
01:00 AM 50.2°F10.1°C 45.6°F7.6°C 84% 2.3 mph E3.7 kmh E 4.0 mph6.4 kmh 30.05 in1017.6 mb 0.00 in0.0 mm 0.00 in/hr0.0 mm/hr 0.00 in0.0 mm
12:55 AM 50.0°F10.0°C 45.4°F7.4°C 84% 0.7 mph ENE1.1 kmh ENE 2.5 mph4.0 kmh 30.05 in1017.6 mb 0.00 in0.0 mm 0.00 in/hr0.0 mm/hr 0.00 in0.0 mm
12:50 AM 50.0°F10.0°C 45.4°F7.4°C 84% 1.7 mph NE2.7 kmh NE 3.4 mph5.5 kmh 30.05 in1017.6 mb 0.00 in0.0 mm 0.00 in/hr0.0 mm/hr 0.00 in0.0 mm
12:45 AM 50.0°F10.0°C 45.4°F7.4°C 84% 2.9 mph ENE4.7 kmh ENE 3.4 mph5.5 kmh 30.05 in1017.6 mb 0.00 in0.0 mm 0.00 in/hr0.0 mm/hr 0.00 in0.0 mm
12:40 AM 50.0°F10.0°C 45.4°F7.4°C 84% 2.9 mph E4.7 kmh E 3.4 mph5.5 kmh 30.05 in1017.6 mb 0.00 in0.0 mm 0.00 in/hr0.0 mm/hr 0.00 in0.0 mm
12:35 AM 49.9°F9.9°C 45.2°F7.3°C 84% 1.6 mph ESE2.6 kmh ESE 3.4 mph5.5 kmh 30.05 in1017.6 mb 0.00 in0.0 mm 0.00 in/hr0.0 mm/hr 0.00 in0.0 mm
12:30 AM 49.9°F9.9°C 45.2°F7.3°C 84% 1.3 mph ESE2.1 kmh ESE 2.0 mph3.2 kmh 30.05 in1017.6 mb 0.00 in0.0 mm 0.00 in/hr0.0 mm/hr 0.00 in0.0 mm
12:25 AM 49.9°F9.9°C 45.2°F7.3°C 84% 1.1 mph SE1.8 kmh SE 2.7 mph4.3 kmh 30.06 in1017.9 mb 0.00 in0.0 mm 0.00 in/hr0.0 mm/hr 0.00 in0.0 mm
12:20 AM 49.7°F9.8°C 45.0°F7.2°C 84% 1.2 mph SSE1.9 kmh SSE 2.7 mph4.3 kmh 30.06 in1017.9 mb 0.00 in0.0 mm 0.00 in/hr0.0 mm/hr 0.00 in0.0 mm
12:15 AM 49.7°F9.8°C 45.0°F7.2°C 84% 1.6 mph SE2.6 kmh SE 2.5 mph4.0 kmh 30.06 in1017.9 mb 0.00 in0.0 mm 0.00 in/hr0.0 mm/hr 0.00 in0.0 mm
12:10 AM 49.7°F9.8°C 45.0°F7.2°C 84% 1.9 mph ENE3.1 kmh ENE 2.7 mph4.3 kmh 30.06 in1017.9 mb 0.00 in0.0 mm 0.00 in/hr0.0 mm/hr 0.00 in0.0 mm
12:05 AM 49.5°F9.7°C 44.5°F6.9°C 83% 1.3 mph E2.1 kmh E 2.7 mph4.3 kmh 30.06 in1017.9 mb 0.00 in0.0 mm 0.00 in/hr0.0 mm/hr 0.00 in0.0 mm
12:00 AM 49.5°F9.7°C 44.5°F6.9°C 83% 0.5 mph E0.8 kmh E 2.2 mph3.5 kmh 30.07 in1018.3 mb 0.00 in0.0 mm 0.00 in/hr0.0 mm/hr 0.00 in0.0 mm